Fogo, Canada
Current Conditions -  °F | °C
As of 9:22 PM on Friday 24 Oct 2014 (Local Time) from CYQX Reporting Station
Moderate Rain Moderate Rain  
Wind Chill: 40°   Ceiling: 200
Heat Index: 46°   Visibility: 3mi
Dew Point: 46°   Wind: 16mph
Humidity: 100%   Direction: 40°NE
Pressure: 29.72"   Gusts: NA
Location:  49.7°N, 54.28°W
Report Text: CYQX 242322Z 04014KT 3SM RA BR OVC002 08/08 A2972 RMK SF8 SLP069
Loading
Personal Weather Stations






























Interactive Weather Map
Tropical Storm Tracking
New forecast layout! Learn more

10-Day Weather Forecast

Advertisements
Track Severe Weather on mobile